Time;durP1;ratioP1;P1;durP2;ratioP2;P2;SDS_P1;SDS_P2;PMS_P1;PMS_P2;Temp;Humidity;BMP_temperature;BMP_pressure;BME280_temperature;BME280_humidity;BME280_pressure;Samples;Min_cycle;Max_cycle;Signal;HPM_P1;HPM_P2
2023/06/29 00:00:49;;;;;;;;;;;;;;;;;;5068123;28;19966;-46
2023/06/29 05:10:52;;;;;;;;;;;;;;;;;;5064916;28;20429;-46
2023/06/29 05:13:18;;;;;;;;;;;;;;;;;;5065995;28;19913;-45
2023/06/29 05:15:47;;;;;;;;;;;;;;;;;;5066421;28;19904;-45
2023/06/29 05:18:13;;;;;;;;;;;;;;;;;;5050138;28;20359;-48
2023/06/29 05:20:39;;;;;;;;;;;;;;;;;;5065002;28;20003;-49
2023/06/29 05:23:05;;;;;;;;;;;;;;;;;;5068605;28;19913;-48
2023/06/29 05:25:31;;;;;;;;;;;;;;;;;;5070412;28;20357;-49
2023/06/29 05:27:57;;;;;;;;;;;;;;;;;;5067561;28;19916;-50
2023/06/29 05:30:23;;;;;;;;;;;;;;;;;;5072337;28;19913;-47
2023/06/29 05:32:49;;;;;;;;;;;;;;;;;;5069535;28;20046;-45
2023/06/29 05:35:15;;;;;;;;;;;;;;;;;;5068895;28;20327;-50
2023/06/29 05:37:41;;;;;;;;;;;;;;;;;;5067194;28;19923;-49
2023/06/29 05:40:07;;;;;;;;;;;;;;;;;;5068368;28;19924;-47
2023/06/29 05:42:33;;;;;;;;;;;;;;;;;;5069052;28;19955;-46
2023/06/29 05:44:59;;;;;;;;;;;;;;;;;;5068994;28;20436;-46
2023/06/29 05:47:25;;;;;;;;;;;;;;;;;;5068982;28;19912;-46
2023/06/29 05:49:51;;;;;;;;;;;;;;;;;;5069529;28;19917;-45
2023/06/29 05:52:17;;;;;;;;;;;;;;;;;;5080553;28;20020;-48
2023/06/29 05:54:43;;;;;;;;;;;;;;;;;;5089472;28;19912;-45
2023/06/29 05:57:11;;;;;;;;;;;;;;;;;;5076653;28;19913;-45
2023/06/29 05:59:37;;;;;;;;;;;;;;;;;;5048668;28;19921;-48
2023/06/29 06:02:03;;;;;;;;;;;;;;;;;;5073371;28;19916;-49
2023/06/29 06:04:29;;;;;;;;;;;;;;;;;;5068823;28;19912;-48
2023/06/29 06:06:55;;;;;;;;;;;;;;;;;;5067295;28;20025;-46
2023/06/29 06:09:21;;;;;;;;;;;;;;;;;;5068789;28;20414;-46
2023/06/29 06:11:47;;;;;;;;;;;;;;;;;;5067508;28;19974;-49
2023/06/29 06:14:13;;;;;;;;;;;;;;;;;;5067534;28;20023;-48
2023/06/29 06:16:39;;;;;;;;;;;;;;;;;;5068281;28;19991;-46
2023/06/29 06:19:04;;;;;;;;;;;;;;;;;;5068802;28;19935;-49
2023/06/29 06:21:30;;;;;;;;;;;;;;;;;;5068569;28;19960;-48
2023/06/29 06:23:56;;;;;;;;;;;;;;;;;;5069106;28;20006;-46
2023/06/29 06:26:22;;;;;;;;;;;;;;;;;;5068889;28;19993;-48
2023/06/29 06:28:50;;;;;;;;;;;;;;;;;;5069685;28;19913;-45
2023/06/29 06:31:17;;;;;;;;;;;;;;;;;;5068874;28;19978;-47
2023/06/29 06:33:45;;;;;;;;;;;;;;;;;;5068305;28;20291;-47
2023/06/29 06:36:11;;;;;;;;;;;;;;;;;;5064801;28;19917;-48
2023/06/29 06:38:37;;;;;;;;;;;;;;;;;;5069471;28;19916;-46
2023/06/29 06:41:03;;;;;;;;;;;;;;;;;;5084871;28;19940;-46
2023/06/29 06:43:29;;;;;;;;;;;;;;;;;;5069307;28;19912;-47
2023/06/29 06:45:55;;;;;;;;;;;;;;;;;;5067931;28;19913;-45
2023/06/29 06:48:21;;;;;;;;;;;;;;;;;;5069208;28;20311;-46
2023/06/29 06:50:47;;;;;;;;;;;;;;;;;;5069376;28;19920;-46
2023/06/29 06:53:13;;;;;;;;;;;;;;;;;;5068819;28;19912;-47
2023/06/29 06:55:39;;;;;;;;;;;;;;;;;;5066775;28;19913;-48
2023/06/29 06:58:05;;;;;;;;;;;;;;;;;;5066961;28;19922;-47
2023/06/29 07:00:31;;;;;;;;;;;;;;;;;;5063967;28;20383;-45
2023/06/29 07:02:57;;;;;;;;;;;;;;;;;;5074203;28;19967;-47
2023/06/29 07:05:24;;;;;;;;;;;;;;;;;;5066965;28;20420;-47
2023/06/29 07:07:51;;;;;;;;;;;;;;;;;;5075132;28;19958;-47
2023/06/29 07:10:17;;;;;;;;;;;;;;;;;;5084080;28;20344;-46
2023/06/29 07:12:43;;;;;;;;;;;;;;;;;;5081083;28;19970;-48
2023/06/29 07:15:09;;;;;;;;;;;;;;;;;;5069855;28;20276;-51
2023/06/29 07:17:35;;;;;;;;;;;;;;;;;;5073112;28;19919;-47
2023/06/29 07:20:01;;;;;;;;;;;;;;;;;;5071726;28;19935;-49
2023/06/29 07:22:27;;;;;;;;;;;;;;;;;;5072592;28;19919;-46
2023/06/29 07:24:53;;;;;;;;;;;;;;;;;;5064751;28;19912;-49
2023/06/29 07:27:19;;;;;;;;;;;;;;;;;;5066116;28;19962;-47
2023/06/29 07:29:46;;;;;;;;;;;;;;;;;;5056479;28;19973;-48
2023/06/29 07:32:12;;;;;;;;;;;;;;;;;;5051293;28;20023;-49
2023/06/29 07:34:39;;;;;;;;;;;;;;;;;;5051779;28;20072;-48
2023/06/29 07:37:06;;;;;;;;;;;;;;;;;;5051220;28;19913;-47
2023/06/29 07:39:33;;;;;;;;;;;;;;;;;;5054741;28;19924;-48
2023/06/29 07:41:59;;;;;;;;;;;;;;;;;;5052649;28;20337;-46
2023/06/29 07:44:25;;;;;;;;;;;;;;;;;;5070063;28;19908;-48
2023/06/29 07:46:51;;;;;;;;;;;;;;;;;;5069768;28;19962;-48
2023/06/29 07:49:17;;;;;;;;;;;;;;;;;;5069881;28;19913;-46
2023/06/29 07:51:43;;;;;;;;;;;;;;;;;;5052220;28;20296;-45
2023/06/29 07:54:09;;;;;;;;;;;;;;;;;;5060834;28;19917;-47
2023/06/29 07:56:35;;;;;;;;;;;;;;;;;;5059496;28;19912;-46
2023/06/29 07:59:01;;;;;;;;;;;;;;;;;;5049654;28;19923;-49
2023/06/29 08:01:27;;;;;;;;;;;;;;;;;;5049828;28;20003;-47
2023/06/29 08:03:53;;;;;;;;;;;;;;;;;;5049370;28;19913;-47
2023/06/29 08:06:19;;;;;;;;;;;;;;;;;;5060156;28;20390;-46
2023/06/29 08:08:45;;;;;;;;;;;;;;;;;;5069732;28;19912;-46
2023/06/29 08:11:10;;;;;;;;;;;;;;;;;;5068565;28;19913;-46
2023/06/29 08:13:36;;;;;;;;;;;;;;;;;;5069931;28;20050;-46
2023/06/29 08:16:02;;;;;;;;;;;;;;;;;;5069485;28;19935;-47
2023/06/29 08:18:29;;;;;;;;;;;;;;;;;;5062463;28;20022;-46
2023/06/29 08:20:55;;;;;;;;;;;;;;;;;;5069028;28;20383;-50
2023/06/29 08:23:21;;;;;;;;;;;;;;;;;;5069455;28;19912;-46
2023/06/29 08:25:48;;;;;;;;;;;;;;;;;;5068906;28;19937;-49
2023/06/29 08:28:14;;;;;;;;;;;;;;;;;;5068818;28;20006;-48
2023/06/29 08:30:40;;;;;;;;;;;;;;;;;;5069321;28;20043;-46
2023/06/29 08:33:06;;;;;;;;;;;;;;;;;;5068769;28;20019;-46
2023/06/29 08:35:32;;;;;;;;;;;;;;;;;;5068243;28;20003;-45
2023/06/29 08:37:58;;;;;;;;;;;;;;;;;;5068361;28;20046;-45
2023/06/29 08:40:24;;;;;;;;;;;;;;;;;;5067572;28;19912;-47
2023/06/29 08:42:49;;;;;;;;;;;;;;;;;;5067764;28;19923;-46
2023/06/29 08:45:15;;;;;;;;;;;;;;;;;;5067457;28;19931;-46
2023/06/29 08:47:41;;;;;;;;;;;;;;;;;;5068201;28;19912;-46
2023/06/29 08:50:07;;;;;;;;;;;;;;;;;;5068758;28;20493;-46
2023/06/29 08:52:33;;;;;;;;;;;;;;;;;;5067879;28;19954;-45
2023/06/29 08:54:59;;;;;;;;;;;;;;;;;;5067751;28;19917;-46
2023/06/29 08:57:27;;;;;;;;;;;;;;;;;;5067859;28;19908;-46
2023/06/29 08:59:53;;;;;;;;;;;;;;;;;;5067663;28;20015;-48
2023/06/29 09:02:19;;;;;;;;;;;;;;;;;;5067139;28;20016;-45
2023/06/29 09:04:46;;;;;;;;;;;;;;;;;;5066459;28;19912;-50
2023/06/29 09:07:15;;;;;;;;;;;;;;;;;;5069374;28;19926;-47
2023/06/29 09:09:43;;;;;;;;;;;;;;;;;;5066429;28;19916;-48
2023/06/29 09:12:11;;;;;;;;;;;;;;;;;;5067045;28;19924;-48
2023/06/29 09:14:43;;;;;;;;;;;;;;;;;;5066716;28;19920;-47
2023/06/29 09:17:10;;;;;;;;;;;;;;;;;;5067213;28;19920;-48
2023/06/29 09:19:36;;;;;;;;;;;;;;;;;;5068025;28;19922;-49
2023/06/29 09:22:03;;;;;;;;;;;;;;;;;;5066696;28;19921;-44
2023/06/29 09:24:29;;;;;;;;;;;;;;;;;;5068355;28;19919;-45
2023/06/29 09:26:55;;;;;;;;;;;;;;;;;;5067707;28;20291;-45
2023/06/29 09:29:23;;;;;;;;;;;;;;;;;;5060125;28;19919;-45
2023/06/29 09:31:49;;;;;;;;;;;;;;;;;;5053967;28;19957;-45
2023/06/29 09:34:15;;;;;;;;;;;;;;;;;;5075207;28;19915;-45
2023/06/29 09:36:41;;;;;;;;;;;;;;;;;;5050381;28;20336;-45
2023/06/29 09:39:07;;;;;;;;;;;;;;;;;;5066009;28;19966;-45
2023/06/29 09:41:33;;;;;;;;;;;;;;;;;;5065606;28;19916;-45
2023/06/29 09:43:59;;;;;;;;;;;;;;;;;;5066957;28;19913;-45
2023/06/29 09:46:25;;;;;;;;;;;;;;;;;;5065677;28;19928;-47
2023/06/29 09:48:51;;;;;;;;;;;;;;;;;;5071840;28;19912;-47
2023/06/29 09:51:16;;;;;;;;;;;;;;;;;;5052598;28;20291;-45
2023/06/29 09:53:42;;;;;;;;;;;;;;;;;;5061440;28;19917;-47
2023/06/29 09:56:08;;;;;;;;;;;;;;;;;;5066932;28;19917;-46
2023/06/29 09:58:34;;;;;;;;;;;;;;;;;;5067858;28;19939;-45
2023/06/29 10:01:03;;;;;;;;;;;;;;;;;;5068832;28;20137;-49
2023/06/29 10:03:32;;;;;;;;;;;;;;;;;;5067332;28;19947;-47
2023/06/29 10:05:58;;;;;;;;;;;;;;;;;;5066718;28;20604;-47
2023/06/29 10:08:24;;;;;;;;;;;;;;;;;;5058374;28;19916;-48
2023/06/29 10:10:50;;;;;;;;;;;;;;;;;;5066870;28;19908;-48
2023/06/29 10:13:16;;;;;;;;;;;;;;;;;;5067064;28;19920;-48
2023/06/29 10:15:41;;;;;;;;;;;;;;;;;;5065424;28;19917;-46
2023/06/29 10:18:07;;;;;;;;;;;;;;;;;;5069559;28;20032;-46
2023/06/29 10:20:35;;;;;;;;;;;;;;;;;;5071047;28;19923;-47
2023/06/29 10:23:01;;;;;;;;;;;;;;;;;;5065805;28;19913;-47
2023/06/29 10:25:28;;;;;;;;;;;;;;;;;;5046928;28;19909;-49
2023/06/29 10:27:54;;;;;;;;;;;;;;;;;;5047061;28;19920;-47
2023/06/29 10:30:23;;;;;;;;;;;;;;;;;;5069976;28;20281;-46
2023/06/29 10:32:50;;;;;;;;;;;;;;;;;;5068178;28;19912;-48
2023/06/29 10:35:16;;;;;;;;;;;;;;;;;;5076627;28;19912;-49
2023/06/29 10:37:42;;;;;;;;;;;;;;;;;;5058543;28;19971;-49
2023/06/29 10:40:09;;;;;;;;;;;;;;;;;;5066626;28;19916;-46
2023/06/29 10:42:35;;;;;;;;;;;;;;;;;;5051016;28;20008;-46
2023/06/29 10:45:02;;;;;;;;;;;;;;;;;;5047115;28;20218;-47
2023/06/29 10:47:36;;;;;;;;;;;;;;;;;;5064001;28;19981;-50
2023/06/29 10:50:02;;;;;;;;;;;;;;;;;;5049712;28;19988;-48
2023/06/29 10:52:28;;;;;;;;;;;;;;;;;;5046784;28;20028;-47
2023/06/29 10:54:54;;;;;;;;;;;;;;;;;;5051293;28;19960;-48
2023/06/29 10:57:20;;;;;;;;;;;;;;;;;;5066673;28;19939;-50
2023/06/29 10:59:46;;;;;;;;;;;;;;;;;;5066526;28;19916;-47
2023/06/29 11:02:12;;;;;;;;;;;;;;;;;;5061041;28;19916;-47
2023/06/29 11:04:38;;;;;;;;;;;;;;;;;;5086519;28;19919;-46
2023/06/29 11:07:04;;;;;;;;;;;;;;;;;;5077278;28;19916;-48
2023/06/29 11:09:30;;;;;;;;;;;;;;;;;;5067026;28;19909;-50
2023/06/29 11:11:56;;;;;;;;;;;;;;;;;;5065600;28;20389;-49
2023/06/29 11:14:22;;;;;;;;;;;;;;;;;;5066373;28;19955;-50
2023/06/29 11:16:48;;;;;;;;;;;;;;;;;;5065950;28;20294;-48
2023/06/29 11:19:14;;;;;;;;;;;;;;;;;;5053232;28;19921;-49
2023/06/29 11:21:40;;;;;;;;;;;;;;;;;;5062735;28;19970;-47
2023/06/29 11:24:07;;;;;;;;;;;;;;;;;;5054810;28;19943;-49
2023/06/29 11:26:33;;;;;;;;;;;;;;;;;;5065294;28;19916;-48
2023/06/29 11:28:59;;;;;;;;;;;;;;;;;;5055027;28;19998;-48
2023/06/29 11:31:25;;;;;;;;;;;;;;;;;;5079029;28;19919;-47
2023/06/29 11:33:51;;;;;;;;;;;;;;;;;;5067481;28;19908;-47
2023/06/29 11:36:17;;;;;;;;;;;;;;;;;;5070942;28;19912;-49
2023/06/29 11:38:43;;;;;;;;;;;;;;;;;;5066175;28;19958;-49
2023/06/29 11:41:09;;;;;;;;;;;;;;;;;;5071753;28;20033;-47
2023/06/29 11:43:35;;;;;;;;;;;;;;;;;;5046460;28;19945;-48
2023/06/29 11:46:01;;;;;;;;;;;;;;;;;;5049207;28;19909;-48
2023/06/29 11:48:29;;;;;;;;;;;;;;;;;;5062388;28;20590;-48
2023/06/29 11:50:55;;;;;;;;;;;;;;;;;;5070619;28;20391;-46
2023/06/29 11:53:21;;;;;;;;;;;;;;;;;;5069314;28;19915;-49
2023/06/29 11:55:47;;;;;;;;;;;;;;;;;;5069178;28;20110;-46
2023/06/29 11:58:13;;;;;;;;;;;;;;;;;;5069670;28;19908;-46
2023/06/29 12:00:39;;;;;;;;;;;;;;;;;;5069360;28;19924;-49
2023/06/29 12:03:05;;;;;;;;;;;;;;;;;;5049636;28;20360;-47
2023/06/29 12:05:31;;;;;;;;;;;;;;;;;;5066390;28;19954;-50
2023/06/29 12:07:58;;;;;;;;;;;;;;;;;;5068867;28;19912;-48
2023/06/29 12:10:25;;;;;;;;;;;;;;;;;;5068631;28;19966;-47
2023/06/29 12:12:58;;;;;;;;;;;;;;;;;;5068028;28;19941;-48
2023/06/29 12:15:24;;;;;;;;;;;;;;;;;;5069432;28;19935;-48
2023/06/29 12:17:51;;;;;;;;;;;;;;;;;;5053084;28;19978;-47
2023/06/29 12:20:17;;;;;;;;;;;;;;;;;;5065013;28;20401;-53
2023/06/29 12:22:43;;;;;;;;;;;;;;;;;;5068399;28;19916;-50
2023/06/29 12:25:10;;;;;;;;;;;;;;;;;;5069443;28;19920;-47
2023/06/29 12:27:36;;;;;;;;;;;;;;;;;;5069237;28;19927;-48
2023/06/29 12:30:02;;;;;;;;;;;;;;;;;;5068133;28;20559;-46
2023/06/29 12:32:28;;;;;;;;;;;;;;;;;;5053639;28;20414;-50
2023/06/29 12:34:54;;;;;;;;;;;;;;;;;;5071012;28;19917;-49
2023/06/29 12:37:20;;;;;;;;;;;;;;;;;;5063363;28;19913;-49
2023/06/29 12:39:48;;;;;;;;;;;;;;;;;;5073261;28;19946;-48
2023/06/29 12:42:14;;;;;;;;;;;;;;;;;;5060031;28;19917;-48
2023/06/29 12:44:40;;;;;;;;;;;;;;;;;;5056705;28;19938;-49
2023/06/29 12:47:06;;;;;;;;;;;;;;;;;;5065373;28;20023;-49
2023/06/29 12:49:32;;;;;;;;;;;;;;;;;;5048972;28;19912;-48
2023/06/29 12:51:58;;;;;;;;;;;;;;;;;;5063340;28;20007;-47
2023/06/29 12:54:24;;;;;;;;;;;;;;;;;;5067738;28;20010;-47
2023/06/29 12:56:50;;;;;;;;;;;;;;;;;;5068068;28;20105;-49
2023/06/29 12:59:16;;;;;;;;;;;;;;;;;;5068391;28;19920;-47
2023/06/29 13:01:42;;;;;;;;;;;;;;;;;;5069140;28;19934;-48
2023/06/29 13:04:08;;;;;;;;;;;;;;;;;;5069218;28;19952;-47
2023/06/29 13:06:34;;;;;;;;;;;;;;;;;;5068378;28;19920;-49
2023/06/29 13:09:00;;;;;;;;;;;;;;;;;;5068321;28;19989;-50
2023/06/29 13:11:27;;;;;;;;;;;;;;;;;;5060489;28;19963;-50
2023/06/29 13:13:54;;;;;;;;;;;;;;;;;;5068225;28;19915;-49
2023/06/29 13:16:20;;;;;;;;;;;;;;;;;;5064364;28;20074;-48
2023/06/29 13:18:46;;;;;;;;;;;;;;;;;;5055580;28;20603;-48
2023/06/29 13:21:11;;;;;;;;;;;;;;;;;;5065406;28;19913;-49
2023/06/29 13:23:37;;;;;;;;;;;;;;;;;;5066973;28;19988;-49
2023/06/29 13:26:03;;;;;;;;;;;;;;;;;;5068058;28;20007;-52
2023/06/29 13:28:29;;;;;;;;;;;;;;;;;;5067492;28;19912;-48
2023/06/29 13:30:55;;;;;;;;;;;;;;;;;;5067421;28;19934;-47
2023/06/29 13:33:21;;;;;;;;;;;;;;;;;;5067355;28;20279;-48
2023/06/29 13:35:47;;;;;;;;;;;;;;;;;;5068100;28;19908;-48
2023/06/29 13:38:13;;;;;;;;;;;;;;;;;;5067917;28;19912;-46
2023/06/29 13:40:39;;;;;;;;;;;;;;;;;;5067811;28;19920;-48
2023/06/29 13:43:05;;;;;;;;;;;;;;;;;;5067790;28;20045;-47
2023/06/29 13:45:31;;;;;;;;;;;;;;;;;;5078225;28;19915;-48
2023/06/29 13:47:57;;;;;;;;;;;;;;;;;;5075173;28;19913;-47
2023/06/29 13:50:23;;;;;;;;;;;;;;;;;;5064951;28;19939;-48
2023/06/29 13:52:49;;;;;;;;;;;;;;;;;;5053361;28;19949;-48
2023/06/29 13:55:15;;;;;;;;;;;;;;;;;;5065291;28;19923;-49
2023/06/29 13:57:41;;;;;;;;;;;;;;;;;;5072061;28;19939;-47
2023/06/29 14:00:07;;;;;;;;;;;;;;;;;;5088289;28;19912;-48
2023/06/29 14:02:34;;;;;;;;;;;;;;;;;;5072327;28;19916;-48
2023/06/29 14:04:59;;;;;;;;;;;;;;;;;;5064991;28;19916;-48
2023/06/29 14:07:25;;;;;;;;;;;;;;;;;;5066727;28;19939;-48
2023/06/29 14:09:51;;;;;;;;;;;;;;;;;;5068404;28;19909;-47
2023/06/29 14:12:17;;;;;;;;;;;;;;;;;;5067351;28;19916;-51
2023/06/29 14:14:44;;;;;;;;;;;;;;;;;;5067322;28;19995;-49
2023/06/29 14:17:10;;;;;;;;;;;;;;;;;;5068726;28;19958;-49
2023/06/29 14:19:36;;;;;;;;;;;;;;;;;;5067928;28;19916;-51
2023/06/29 14:22:03;;;;;;;;;;;;;;;;;;5066045;28;19992;-48
2023/06/29 14:24:29;;;;;;;;;;;;;;;;;;5065541;28;19908;-51
2023/06/29 14:26:55;;;;;;;;;;;;;;;;;;5065793;28;20303;-50
2023/06/29 14:29:21;;;;;;;;;;;;;;;;;;5068005;28;19952;-49
2023/06/29 14:31:47;;;;;;;;;;;;;;;;;;5066760;28;20803;-52
2023/06/29 14:34:13;;;;;;;;;;;;;;;;;;5048795;28;19935;-50
2023/06/29 14:36:39;;;;;;;;;;;;;;;;;;5068428;28;19915;-49
2023/06/29 14:39:05;;;;;;;;;;;;;;;;;;5057658;28;20008;-50
2023/06/29 14:41:31;;;;;;;;;;;;;;;;;;5067052;28;19958;-50
2023/06/29 14:43:57;;;;;;;;;;;;;;;;;;5067427;28;19913;-48
2023/06/29 14:46:23;;;;;;;;;;;;;;;;;;5066564;28;19916;-51
2023/06/29 14:48:49;;;;;;;;;;;;;;;;;;5067728;28;19988;-49
2023/06/29 14:51:15;;;;;;;;;;;;;;;;;;5066216;28;19916;-52
2023/06/29 14:53:41;;;;;;;;;;;;;;;;;;5068218;28;19915;-48
2023/06/29 14:56:07;;;;;;;;;;;;;;;;;;5050291;28;19915;-52
2023/06/29 14:58:33;;;;;;;;;;;;;;;;;;5067658;28;19991;-51
2023/06/29 15:00:59;;;;;;;;;;;;;;;;;;5067334;28;20006;-49
2023/06/29 15:03:25;;;;;;;;;;;;;;;;;;5060682;28;19916;-50
2023/06/29 15:05:51;;;;;;;;;;;;;;;;;;5050648;28;19917;-47
2023/06/29 15:08:17;;;;;;;;;;;;;;;;;;5065729;28;19931;-50
2023/06/29 15:10:43;;;;;;;;;;;;;;;;;;5066476;28;19916;-51
2023/06/29 15:13:09;;;;;;;;;;;;;;;;;;5068462;28;19966;-51
2023/06/29 15:15:35;;;;;;;;;;;;;;;;;;5065203;28;19954;-49
2023/06/29 15:18:01;;;;;;;;;;;;;;;;;;5067456;28;19919;-51
2023/06/29 15:20:27;;;;;;;;;;;;;;;;;;5069285;28;20399;-51
2023/06/29 15:22:53;;;;;;;;;;;;;;;;;;5071313;28;19912;-50
2023/06/29 15:25:19;;;;;;;;;;;;;;;;;;5071423;28;19977;-48
2023/06/29 15:27:45;;;;;;;;;;;;;;;;;;5071155;28;20337;-49
2023/06/29 15:30:12;;;;;;;;;;;;;;;;;;5054116;28;19912;-51
2023/06/29 15:32:38;;;;;;;;;;;;;;;;;;5071507;28;19912;-50
2023/06/29 15:35:05;;;;;;;;;;;;;;;;;;5070913;28;19956;-48
2023/06/29 15:37:31;;;;;;;;;;;;;;;;;;5070783;28;19912;-48
2023/06/29 15:39:57;;;;;;;;;;;;;;;;;;5068326;28;19916;-48
2023/06/29 15:42:23;;;;;;;;;;;;;;;;;;5068662;28;19924;-50
2023/06/29 15:44:49;;;;;;;;;;;;;;;;;;5069228;28;19912;-49
2023/06/29 15:47:15;;;;;;;;;;;;;;;;;;5067428;28;19926;-50
2023/06/29 15:49:42;;;;;;;;;;;;;;;;;;5067635;28;19912;-50
2023/06/29 15:52:08;;;;;;;;;;;;;;;;;;5050316;28;20344;-51
2023/06/29 15:54:34;;;;;;;;;;;;;;;;;;5079491;28;19950;-50
2023/06/29 15:57:00;;;;;;;;;;;;;;;;;;5072120;28;20391;-48
2023/06/29 15:59:26;;;;;;;;;;;;;;;;;;5069737;28;19921;-47
2023/06/29 16:01:52;;;;;;;;;;;;;;;;;;5071990;28;19919;-50
2023/06/29 16:04:18;;;;;;;;;;;;;;;;;;5069606;28;19913;-51
2023/06/29 16:06:45;;;;;;;;;;;;;;;;;;5068631;28;19995;-39
2023/06/29 16:09:11;;;;;;;;;;;;;;;;;;5070613;28;19916;-39
2023/06/29 16:11:37;;;;;;;;;;;;;;;;;;5070383;28;19924;-39
2023/06/29 16:14:03;;;;;;;;;;;;;;;;;;5070339;28;19912;-41
2023/06/29 16:16:29;;;;;;;;;;;;;;;;;;5039057;28;19912;-39
2023/06/29 16:18:56;;;;;;;;;;;;;;;;;;5050238;28;19912;-39
2023/06/29 16:21:22;;;;;;;;;;;;;;;;;;5061990;28;19923;-39
2023/06/29 16:23:47;;;;;;;;;;;;;;;;;;5069946;28;19912;-39
2023/06/29 16:26:13;;;;;;;;;;;;;;;;;;5069350;28;19916;-39
2023/06/29 16:28:39;;;;;;;;;;;;;;;;;;5069989;28;19912;-39
2023/06/29 16:31:05;;;;;;;;;;;;;;;;;;5067422;28;19981;-39
2023/06/29 16:33:32;;;;;;;;;;;;;;;;;;5067763;28;20427;-39
2023/06/29 16:35:57;;;;;;;;;;;;;;;;;;5080175;28;19958;-39
2023/06/29 16:38:23;;;;;;;;;;;;;;;;;;5069505;28;19912;-39
2023/06/29 16:40:51;;;;;;;;;;;;;;;;;;5084537;28;19921;-39
2023/06/29 16:43:17;;;;;;;;;;;;;;;;;;5071375;28;19917;-39
2023/06/29 16:45:45;;;;;;;;;;;;;;;;;;5046917;28;19912;-39
2023/06/29 16:48:11;;;;;;;;;;;;;;;;;;5071348;28;19916;-39
2023/06/29 16:50:37;;;;;;;;;;;;;;;;;;5067140;28;19927;-39
2023/06/29 16:53:03;;;;;;;;;;;;;;;;;;5071452;28;19913;-39
2023/06/29 16:55:29;;;;;;;;;;;;;;;;;;5059069;28;19967;-39
2023/06/29 16:57:55;;;;;;;;;;;;;;;;;;5081903;28;19912;-39
2023/06/29 17:00:21;;;;;;;;;;;;;;;;;;5082542;28;19916;-39
2023/06/29 17:02:47;;;;;;;;;;;;;;;;;;5066711;28;19986;-39
2023/06/29 17:05:13;;;;;;;;;;;;;;;;;;5083424;28;19913;-39
2023/06/29 17:07:39;;;;;;;;;;;;;;;;;;5066057;28;19935;-39
2023/06/29 17:10:04;;;;;;;;;;;;;;;;;;5063503;28;19920;-39
2023/06/29 17:12:31;;;;;;;;;;;;;;;;;;5065412;28;19920;-39
2023/06/29 17:14:57;;;;;;;;;;;;;;;;;;5049118;28;19913;-39
2023/06/29 17:17:23;;;;;;;;;;;;;;;;;;5066057;28;19966;-39
2023/06/29 17:19:49;;;;;;;;;;;;;;;;;;5049156;28;19913;-40
2023/06/29 17:22:15;;;;;;;;;;;;;;;;;;5063048;28;19917;-52
2023/06/29 17:24:40;;;;;;;;;;;;;;;;;;5066247;28;19920;-49
2023/06/29 17:27:06;;;;;;;;;;;;;;;;;;5065235;28;19916;-50
2023/06/29 17:29:32;;;;;;;;;;;;;;;;;;5067071;28;19912;-51
2023/06/29 17:31:58;;;;;;;;;;;;;;;;;;5077940;28;19912;-52
2023/06/29 17:34:24;;;;;;;;;;;;;;;;;;5078099;28;19920;-51
2023/06/29 17:36:50;;;;;;;;;;;;;;;;;;5083695;28;19912;-51
2023/06/29 17:39:16;;;;;;;;;;;;;;;;;;5063858;28;20015;-52
2023/06/29 17:41:42;;;;;;;;;;;;;;;;;;5066789;28;19927;-49
2023/06/29 17:44:08;;;;;;;;;;;;;;;;;;5047838;28;19912;-50
2023/06/29 17:46:34;;;;;;;;;;;;;;;;;;5075200;28;19956;-49
2023/06/29 17:49:00;;;;;;;;;;;;;;;;;;5083472;28;19947;-48
2023/06/29 17:51:26;;;;;;;;;;;;;;;;;;5067304;28;19916;-47
2023/06/29 17:53:52;;;;;;;;;;;;;;;;;;5056937;28;19974;-50
2023/06/29 17:56:18;;;;;;;;;;;;;;;;;;5061369;28;19912;-52
2023/06/29 17:58:44;;;;;;;;;;;;;;;;;;5072639;28;19916;-50
2023/06/29 18:01:10;;;;;;;;;;;;;;;;;;5062984;28;19974;-49
2023/06/29 18:03:36;;;;;;;;;;;;;;;;;;5067029;28;19999;-49
2023/06/29 18:06:02;;;;;;;;;;;;;;;;;;5044382;28;19923;-47
2023/06/29 18:08:28;;;;;;;;;;;;;;;;;;5057606;28;20019;-48
2023/06/29 18:10:54;;;;;;;;;;;;;;;;;;5064925;28;19920;-51
2023/06/29 18:13:20;;;;;;;;;;;;;;;;;;5059262;28;19920;-49
2023/06/29 18:15:45;;;;;;;;;;;;;;;;;;5061760;28;19920;-48
2023/06/29 18:18:11;;;;;;;;;;;;;;;;;;5062415;28;20007;-49
2023/06/29 18:20:37;;;;;;;;;;;;;;;;;;5064429;28;19970;-51
2023/06/29 18:23:03;;;;;;;;;;;;;;;;;;5060368;28;19921;-51
2023/06/29 18:25:29;;;;;;;;;;;;;;;;;;5057957;28;19916;-53
2023/06/29 18:27:55;;;;;;;;;;;;;;;;;;5064080;28;19912;-50
2023/06/29 18:30:21;;;;;;;;;;;;;;;;;;5067072;28;19912;-52
2023/06/29 18:32:47;;;;;;;;;;;;;;;;;;5063713;28;19916;-52
2023/06/29 18:35:13;;;;;;;;;;;;;;;;;;5079468;28;19941;-53
2023/06/29 18:37:44;;;;;;;;;;;;;;;;;;5062853;28;20402;-51
2023/06/29 18:40:10;;;;;;;;;;;;;;;;;;5063901;28;19924;-53
2023/06/29 18:42:36;;;;;;;;;;;;;;;;;;5045768;28;19916;-51
2023/06/29 18:45:02;;;;;;;;;;;;;;;;;;5064902;28;20018;-51
2023/06/29 18:47:28;;;;;;;;;;;;;;;;;;5068208;28;19959;-53
2023/06/29 18:49:54;;;;;;;;;;;;;;;;;;5061878;28;20379;-49
2023/06/29 18:52:20;;;;;;;;;;;;;;;;;;5063663;28;19917;-51
2023/06/29 18:54:47;;;;;;;;;;;;;;;;;;5053281;28;19939;-49
2023/06/29 18:57:13;;;;;;;;;;;;;;;;;;5083780;28;19920;-46
2023/06/29 18:59:39;;;;;;;;;;;;;;;;;;5069019;28;20428;-51
2023/06/29 19:02:05;;;;;;;;;;;;;;;;;;5064377;28;19916;-50
2023/06/29 19:04:31;;;;;;;;;;;;;;;;;;5077082;28;19912;-47
2023/06/29 19:06:57;;;;;;;;;;;;;;;;;;5071995;28;20039;-48
2023/06/29 19:09:23;;;;;;;;;;;;;;;;;;5069216;28;20023;-49
2023/06/29 19:11:49;;;;;;;;;;;;;;;;;;5078532;28;19915;-47
2023/06/29 19:14:15;;;;;;;;;;;;;;;;;;5049926;28;19913;-48
2023/06/29 19:16:41;;;;;;;;;;;;;;;;;;5065428;28;20020;-50
2023/06/29 19:19:07;;;;;;;;;;;;;;;;;;5064807;28;19928;-49
2023/06/29 19:21:33;;;;;;;;;;;;;;;;;;5067500;28;19912;-49
2023/06/29 19:23:59;;;;;;;;;;;;;;;;;;5080831;28;20455;-46
2023/06/29 19:26:25;;;;;;;;;;;;;;;;;;5061537;28;19958;-49
2023/06/29 19:28:51;;;;;;;;;;;;;;;;;;5064909;28;19932;-48
2023/06/29 19:31:17;;;;;;;;;;;;;;;;;;5067679;28;19916;-49
2023/06/29 19:33:43;;;;;;;;;;;;;;;;;;5068526;28;19926;-48
2023/06/29 19:36:09;;;;;;;;;;;;;;;;;;5080195;28;19940;-46
2023/06/29 19:38:35;;;;;;;;;;;;;;;;;;5067555;28;19927;-49
2023/06/29 19:41:01;;;;;;;;;;;;;;;;;;5067957;28;19909;-46
2023/06/29 19:43:27;;;;;;;;;;;;;;;;;;5049468;28;19912;-49
2023/06/29 19:45:53;;;;;;;;;;;;;;;;;;5068110;28;20503;-48
2023/06/29 19:48:19;;;;;;;;;;;;;;;;;;5062890;28;19954;-47
2023/06/29 19:50:45;;;;;;;;;;;;;;;;;;5061125;28;19912;-47
2023/06/29 19:53:11;;;;;;;;;;;;;;;;;;5066004;28;19993;-46
2023/06/29 19:55:37;;;;;;;;;;;;;;;;;;5064691;28;20011;-45
2023/06/29 19:58:03;;;;;;;;;;;;;;;;;;5050673;28;19924;-46
2023/06/29 20:00:29;;;;;;;;;;;;;;;;;;5079540;28;19916;-45
2023/06/29 20:02:55;;;;;;;;;;;;;;;;;;5052533;28;19984;-44
2023/06/29 20:05:20;;;;;;;;;;;;;;;;;;5070739;28;20601;-49
2023/06/29 20:07:46;;;;;;;;;;;;;;;;;;5067991;28;19921;-48
2023/06/29 20:10:12;;;;;;;;;;;;;;;;;;5066603;28;19923;-46
2023/06/29 20:12:38;;;;;;;;;;;;;;;;;;5069392;28;19920;-43
2023/06/29 20:15:04;;;;;;;;;;;;;;;;;;5067796;28;19975;-46
2023/06/29 20:17:30;;;;;;;;;;;;;;;;;;5067727;28;19920;-46
2023/06/29 20:19:56;;;;;;;;;;;;;;;;;;5067812;28;19917;-46
2023/06/29 20:22:22;;;;;;;;;;;;;;;;;;5060099;28;19928;-44
2023/06/29 20:24:48;;;;;;;;;;;;;;;;;;5060804;28;19921;-47
2023/06/29 20:27:14;;;;;;;;;;;;;;;;;;5075188;28;19916;-46
2023/06/29 20:29:40;;;;;;;;;;;;;;;;;;5068102;28;19920;-45
2023/06/29 20:32:06;;;;;;;;;;;;;;;;;;5066960;28;20069;-46
2023/06/29 20:34:32;;;;;;;;;;;;;;;;;;5064751;28;19981;-47
2023/06/29 20:36:58;;;;;;;;;;;;;;;;;;5079818;28;19917;-47
2023/06/29 20:39:26;;;;;;;;;;;;;;;;;;5050994;28;19921;-47
2023/06/29 20:41:52;;;;;;;;;;;;;;;;;;5067152;28;20388;-50
2023/06/29 20:44:18;;;;;;;;;;;;;;;;;;5067382;28;19917;-45
2023/06/29 20:46:46;;;;;;;;;;;;;;;;;;5067683;28;20044;-44
2023/06/29 20:49:12;;;;;;;;;;;;;;;;;;5067568;28;19919;-46
2023/06/29 20:51:38;;;;;;;;;;;;;;;;;;5067075;28;19916;-48
2023/06/29 20:54:04;;;;;;;;;;;;;;;;;;5066997;28;19916;-50
2023/06/29 20:56:30;;;;;;;;;;;;;;;;;;5068062;28;20003;-45
2023/06/29 20:58:56;;;;;;;;;;;;;;;;;;5067493;28;20112;-50
2023/06/29 21:01:23;;;;;;;;;;;;;;;;;;5067382;28;19963;-45
2023/06/29 21:03:49;;;;;;;;;;;;;;;;;;5067573;28;19909;-50
2023/06/29 21:06:15;;;;;;;;;;;;;;;;;;5067419;28;19908;-48
2023/06/29 21:08:41;;;;;;;;;;;;;;;;;;5067908;28;19991;-47
2023/06/29 21:11:07;;;;;;;;;;;;;;;;;;5049044;28;19939;-47
2023/06/29 21:13:33;;;;;;;;;;;;;;;;;;5067602;28;20003;-45
2023/06/29 21:15:59;;;;;;;;;;;;;;;;;;5068009;28;19920;-44
2023/06/29 21:18:25;;;;;;;;;;;;;;;;;;5066429;28;19985;-49
2023/06/29 21:20:51;;;;;;;;;;;;;;;;;;5065951;28;19916;-47
2023/06/29 21:23:16;;;;;;;;;;;;;;;;;;5066919;28;19912;-49
2023/06/29 21:25:42;;;;;;;;;;;;;;;;;;5053858;28;19912;-47
2023/06/29 21:28:08;;;;;;;;;;;;;;;;;;5049023;28;19916;-45
2023/06/29 21:30:34;;;;;;;;;;;;;;;;;;5066936;28;19912;-46
2023/06/29 21:33:00;;;;;;;;;;;;;;;;;;5067238;28;19978;-46
2023/06/29 21:35:26;;;;;;;;;;;;;;;;;;5066686;28;19917;-48
2023/06/29 21:37:52;;;;;;;;;;;;;;;;;;5067357;28;19916;-47
2023/06/29 21:40:18;;;;;;;;;;;;;;;;;;5066395;28;19920;-45
2023/06/29 21:42:44;;;;;;;;;;;;;;;;;;5065222;28;19924;-44
2023/06/29 21:45:10;;;;;;;;;;;;;;;;;;5066350;28;19913;-46